aviador You're here:

KBKL Decoded Metar

CLEVELAND in OH, USA
Report Time2018-05-27 00:53:00
UTC Time2018-05-27 01:10:26
Flight Rules vfr VFR
Wind170° at 06 kt
W.Decomp.*RWY 24: 2.7 kt HW 5.3 kt LCW
W.Rank170° ranks 5
Current wind is below 170° avg. (8.8)
Visibility9999 m
Phenomena:N/A
Clouds:Overcast 095 Hf
Expected CloudBase > 1,200 ft AGL from Temp-Dew spread
Ceiling9,500 ft
Temp22°C (ISA +8)
Dew Point19°C (83% RH)
QNH1009 hPa
Density Alt1,988 ft
Elevation604 ft
Report Wrong Elevation
Raw Report
KBKL 270053Z 17006KT 7SM OVC095 22/19 A2981 RMK AO2 SLP091
T02220189=

Extra information for KBKL:More info

Metar Taf Metar & Taf Last 4 Metars F.Rules Stats Wind Profile Meteogram Temp Stats Airport Information Weather charts Add Link Nearby VenuesMetar ALERT Operation Metar Decoded Social comments

AIRNAV info for KBKL